Branford, Connecticut
Current Conditions -  °F | °C
As of 2:53 AM on Friday 28 Nov 2014 (Local Time) from KHVN Reporting Station
Overcast Overcast  
Wind Chill: 30°   Ceiling: 6000
Heat Index: 36°   Visibility: 10mi
Dew Point: 25°   Wind: 8mph
Humidity: 64%   Direction: 320°NW
Pressure: 30.04"   Gusts: NA
Location:  41.28°N, 72.82°W
Report Text: KHVN 280753Z AUTO 32007KT 10SM OVC060 02/M04 A3004 RMK AO2 SLP171 T00221039
Loading
Personal Weather Stations






























Interactive Weather Map New forecast layout! Learn more

10-Day Weather Forecast

Advertisements
Track Severe Weather on mobile